sensor_id;sensor_type;location;lat;lon;timestamp;P1;durP1;ratioP1;P2;durP2;ratioP2
31652;SDS011;18261;53.648;9.910;2023-07-20T00:01:54;7.97;;;2.38;;
31652;SDS011;18261;53.648;9.910;2023-07-20T00:04:20;6.65;;;2.30;;
31652;SDS011;18261;53.648;9.910;2023-07-20T00:06:46;6.85;;;2.42;;
31652;SDS011;18261;53.648;9.910;2023-07-20T00:09:12;2.70;;;2.08;;
31652;SDS011;18261;53.648;9.910;2023-07-20T00:11:38;6.68;;;2.45;;
31652;SDS011;18261;53.648;9.910;2023-07-20T00:14:05;5.68;;;2.20;;
31652;SDS011;18261;53.648;9.910;2023-07-20T00:16:31;4.95;;;2.20;;
31652;SDS011;18261;53.648;9.910;2023-07-20T00:18:57;5.90;;;2.45;;
31652;SDS011;18261;53.648;9.910;2023-07-20T00:21:23;4.50;;;2.22;;
31652;SDS011;18261;53.648;9.910;2023-07-20T00:23:49;6.28;;;2.47;;
31652;SDS011;18261;53.648;9.910;2023-07-20T00:26:15;4.95;;;2.40;;
31652;SDS011;18261;53.648;9.910;2023-07-20T00:28:42;6.00;;;2.15;;
31652;SDS011;18261;53.648;9.910;2023-07-20T00:31:08;6.43;;;2.33;;
31652;SDS011;18261;53.648;9.910;2023-07-20T00:33:34;7.60;;;2.55;;
31652;SDS011;18261;53.648;9.910;2023-07-20T00:36:00;6.35;;;2.30;;
31652;SDS011;18261;53.648;9.910;2023-07-20T00:38:27;4.97;;;2.22;;
31652;SDS011;18261;53.648;9.910;2023-07-20T00:40:53;5.50;;;2.28;;
31652;SDS011;18261;53.648;9.910;2023-07-20T00:43:19;3.65;;;2.30;;
31652;SDS011;18261;53.648;9.910;2023-07-20T00:45:45;5.30;;;2.70;;
31652;SDS011;18261;53.648;9.910;2023-07-20T00:48:11;4.60;;;2.40;;
31652;SDS011;18261;53.648;9.910;2023-07-20T00:50:37;5.93;;;2.38;;
31652;SDS011;18261;53.648;9.910;2023-07-20T00:53:05;6.20;;;2.40;;
31652;SDS011;18261;53.648;9.910;2023-07-20T00:55:31;9.05;;;3.13;;
31652;SDS011;18261;53.648;9.910;2023-07-20T00:57:57;7.65;;;3.22;;
31652;SDS011;18261;53.648;9.910;2023-07-20T01:00:23;6.70;;;3.00;;
31652;SDS011;18261;53.648;9.910;2023-07-20T01:02:50;7.85;;;3.38;;
31652;SDS011;18261;53.648;9.910;2023-07-20T01:05:17;7.60;;;3.50;;
31652;SDS011;18261;53.648;9.910;2023-07-20T01:10:17;5.88;;;3.10;;
31652;SDS011;18261;53.648;9.910;2023-07-20T01:12:48;6.88;;;3.35;;
31652;SDS011;18261;53.648;9.910;2023-07-20T01:15:30;7.72;;;3.13;;
31652;SDS011;18261;53.648;9.910;2023-07-20T01:17:57;7.03;;;3.65;;
31652;SDS011;18261;53.648;9.910;2023-07-20T01:20:26;8.82;;;3.67;;
31652;SDS011;18261;53.648;9.910;2023-07-20T01:22:59;6.45;;;3.80;;
31652;SDS011;18261;53.648;9.910;2023-07-20T01:25:34;8.18;;;3.90;;
31652;SDS011;18261;53.648;9.910;2023-07-20T01:28:12;6.40;;;3.85;;
31652;SDS011;18261;53.648;9.910;2023-07-20T01:33:26;8.18;;;3.70;;
31652;SDS011;18261;53.648;9.910;2023-07-20T01:35:54;13.70;;;4.10;;
31652;SDS011;18261;53.648;9.910;2023-07-20T01:38:20;7.60;;;3.45;;
31652;SDS011;18261;53.648;9.910;2023-07-20T01:40:47;10.05;;;4.00;;
31652;SDS011;18261;53.648;9.910;2023-07-20T01:43:13;7.03;;;3.90;;
31652;SDS011;18261;53.648;9.910;2023-07-20T01:45:39;10.30;;;4.22;;
31652;SDS011;18261;53.648;9.910;2023-07-20T01:48:05;6.65;;;3.88;;
31652;SDS011;18261;53.648;9.910;2023-07-20T01:50:31;9.15;;;4.38;;
31652;SDS011;18261;53.648;9.910;2023-07-20T01:52:59;5.88;;;4.03;;
31652;SDS011;18261;53.648;9.910;2023-07-20T01:55:25;6.88;;;4.18;;
31652;SDS011;18261;53.648;9.910;2023-07-20T01:57:51;8.93;;;4.75;;
31652;SDS011;18261;53.648;9.910;2023-07-20T02:00:17;7.20;;;4.10;;
31652;SDS011;18261;53.648;9.910;2023-07-20T02:02:46;10.27;;;5.22;;
31652;SDS011;18261;53.648;9.910;2023-07-20T02:05:12;6.28;;;4.15;;
31652;SDS011;18261;53.648;9.910;2023-07-20T02:07:38;6.80;;;4.15;;
31652;SDS011;18261;53.648;9.910;2023-07-20T02:10:04;6.90;;;4.00;;
31652;SDS011;18261;53.648;9.910;2023-07-20T02:12:30;6.10;;;4.00;;
31652;SDS011;18261;53.648;9.910;2023-07-20T02:14:56;9.75;;;4.63;;
31652;SDS011;18261;53.648;9.910;2023-07-20T02:17:22;7.32;;;4.03;;
31652;SDS011;18261;53.648;9.910;2023-07-20T02:19:55;11.57;;;4.25;;
31652;SDS011;18261;53.648;9.910;2023-07-20T02:22:22;7.87;;;4.80;;
31652;SDS011;18261;53.648;9.910;2023-07-20T02:24:48;6.57;;;4.07;;
31652;SDS011;18261;53.648;9.910;2023-07-20T02:27:15;6.80;;;5.10;;
31652;SDS011;18261;53.648;9.910;2023-07-20T02:29:41;7.55;;;4.70;;
31652;SDS011;18261;53.648;9.910;2023-07-20T02:32:07;6.43;;;5.30;;
31652;SDS011;18261;53.648;9.910;2023-07-20T02:34:34;5.68;;;4.63;;
31652;SDS011;18261;53.648;9.910;2023-07-20T02:37:00;7.18;;;5.10;;
31652;SDS011;18261;53.648;9.910;2023-07-20T02:39:27;6.53;;;4.68;;
31652;SDS011;18261;53.648;9.910;2023-07-20T02:41:53;5.40;;;4.43;;
31652;SDS011;18261;53.648;9.910;2023-07-20T02:44:19;8.50;;;5.53;;
31652;SDS011;18261;53.648;9.910;2023-07-20T02:46:45;9.10;;;5.07;;
31652;SDS011;18261;53.648;9.910;2023-07-20T02:49:11;10.00;;;5.40;;
31652;SDS011;18261;53.648;9.910;2023-07-20T02:51:37;8.13;;;5.32;;
31652;SDS011;18261;53.648;9.910;2023-07-20T02:54:03;7.97;;;5.03;;
31652;SDS011;18261;53.648;9.910;2023-07-20T02:56:29;8.13;;;4.75;;
31652;SDS011;18261;53.648;9.910;2023-07-20T02:58:55;7.57;;;5.10;;
31652;SDS011;18261;53.648;9.910;2023-07-20T03:01:22;6.85;;;5.00;;
31652;SDS011;18261;53.648;9.910;2023-07-20T03:03:48;6.95;;;5.25;;
31652;SDS011;18261;53.648;9.910;2023-07-20T03:06:15;8.20;;;5.07;;
31652;SDS011;18261;53.648;9.910;2023-07-20T03:08:41;7.85;;;5.60;;
31652;SDS011;18261;53.648;9.910;2023-07-20T03:11:12;9.30;;;6.15;;
31652;SDS011;18261;53.648;9.910;2023-07-20T03:13:38;8.80;;;4.65;;
31652;SDS011;18261;53.648;9.910;2023-07-20T03:16:04;10.52;;;5.30;;
31652;SDS011;18261;53.648;9.910;2023-07-20T03:18:30;8.85;;;5.20;;
31652;SDS011;18261;53.648;9.910;2023-07-20T03:20:56;6.68;;;5.00;;
31652;SDS011;18261;53.648;9.910;2023-07-20T03:23:22;7.18;;;5.05;;
31652;SDS011;18261;53.648;9.910;2023-07-20T03:25:48;7.65;;;4.70;;
31652;SDS011;18261;53.648;9.910;2023-07-20T03:28:14;8.52;;;5.20;;
31652;SDS011;18261;53.648;9.910;2023-07-20T03:30:40;8.55;;;5.28;;
31652;SDS011;18261;53.648;9.910;2023-07-20T03:33:06;6.57;;;4.50;;
31652;SDS011;18261;53.648;9.910;2023-07-20T03:35:32;7.00;;;5.07;;
31652;SDS011;18261;53.648;9.910;2023-07-20T03:37:58;7.72;;;5.13;;
31652;SDS011;18261;53.648;9.910;2023-07-20T03:40:24;8.32;;;4.78;;
31652;SDS011;18261;53.648;9.910;2023-07-20T03:42:50;10.82;;;5.60;;
31652;SDS011;18261;53.648;9.910;2023-07-20T03:45:16;12.10;;;5.53;;
31652;SDS011;18261;53.648;9.910;2023-07-20T03:47:42;5.97;;;4.88;;
31652;SDS011;18261;53.648;9.910;2023-07-20T03:50:09;6.93;;;5.07;;
31652;SDS011;18261;53.648;9.910;2023-07-20T03:52:35;8.65;;;5.97;;
31652;SDS011;18261;53.648;9.910;2023-07-20T03:55:02;9.85;;;5.90;;
31652;SDS011;18261;53.648;9.910;2023-07-20T03:57:28;5.10;;;4.22;;
31652;SDS011;18261;53.648;9.910;2023-07-20T03:59:54;8.93;;;6.25;;
31652;SDS011;18261;53.648;9.910;2023-07-20T04:02:20;8.18;;;4.95;;
31652;SDS011;18261;53.648;9.910;2023-07-20T04:04:46;7.63;;;5.20;;
31652;SDS011;18261;53.648;9.910;2023-07-20T04:07:12;6.10;;;5.03;;
31652;SDS011;18261;53.648;9.910;2023-07-20T04:09:38;7.97;;;4.20;;
31652;SDS011;18261;53.648;9.910;2023-07-20T04:12:05;6.55;;;4.63;;
31652;SDS011;18261;53.648;9.910;2023-07-20T04:14:31;5.90;;;4.60;;
31652;SDS011;18261;53.648;9.910;2023-07-20T04:16:57;6.57;;;4.15;;
31652;SDS011;18261;53.648;9.910;2023-07-20T04:19:25;6.32;;;4.22;;
31652;SDS011;18261;53.648;9.910;2023-07-20T04:21:51;8.25;;;3.97;;
31652;SDS011;18261;53.648;9.910;2023-07-20T04:24:17;5.45;;;3.70;;
31652;SDS011;18261;53.648;9.910;2023-07-20T04:26:43;7.30;;;4.00;;
31652;SDS011;18261;53.648;9.910;2023-07-20T04:29:09;5.55;;;4.03;;
31652;SDS011;18261;53.648;9.910;2023-07-20T04:31:35;7.43;;;4.05;;
31652;SDS011;18261;53.648;9.910;2023-07-20T04:34:01;9.02;;;3.75;;
31652;SDS011;18261;53.648;9.910;2023-07-20T04:36:27;5.32;;;3.60;;
31652;SDS011;18261;53.648;9.910;2023-07-20T04:38:53;5.78;;;3.72;;
31652;SDS011;18261;53.648;9.910;2023-07-20T04:41:19;3.95;;;3.53;;
31652;SDS011;18261;53.648;9.910;2023-07-20T04:43:45;6.15;;;3.63;;
31652;SDS011;18261;53.648;9.910;2023-07-20T04:46:11;5.53;;;3.38;;
31652;SDS011;18261;53.648;9.910;2023-07-20T04:48:37;4.60;;;2.97;;
31652;SDS011;18261;53.648;9.910;2023-07-20T04:51:05;9.07;;;3.97;;
31652;SDS011;18261;53.648;9.910;2023-07-20T04:53:31;6.57;;;3.20;;
31652;SDS011;18261;53.648;9.910;2023-07-20T04:55:57;5.45;;;3.55;;
31652;SDS011;18261;53.648;9.910;2023-07-20T04:58:23;6.45;;;3.83;;
31652;SDS011;18261;53.648;9.910;2023-07-20T05:00:49;8.38;;;3.13;;
31652;SDS011;18261;53.648;9.910;2023-07-20T05:03:15;6.60;;;3.50;;
31652;SDS011;18261;53.648;9.910;2023-07-20T05:05:41;6.07;;;2.97;;
31652;SDS011;18261;53.648;9.910;2023-07-20T05:08:07;6.30;;;3.45;;
31652;SDS011;18261;53.648;9.910;2023-07-20T05:10:34;11.93;;;3.13;;
31652;SDS011;18261;53.648;9.910;2023-07-20T05:13:00;8.32;;;3.40;;
31652;SDS011;18261;53.648;9.910;2023-07-20T05:15:26;6.85;;;3.60;;
31652;SDS011;18261;53.648;9.910;2023-07-20T05:17:52;6.32;;;3.22;;
31652;SDS011;18261;53.648;9.910;2023-07-20T05:20:18;8.05;;;2.90;;
31652;SDS011;18261;53.648;9.910;2023-07-20T05:22:45;9.75;;;3.75;;
31652;SDS011;18261;53.648;9.910;2023-07-20T05:25:11;9.93;;;3.47;;
31652;SDS011;18261;53.648;9.910;2023-07-20T05:27:37;8.30;;;3.53;;
31652;SDS011;18261;53.648;9.910;2023-07-20T05:30:03;7.93;;;3.83;;
31652;SDS011;18261;53.648;9.910;2023-07-20T05:32:30;7.70;;;4.00;;
31652;SDS011;18261;53.648;9.910;2023-07-20T05:34:56;11.18;;;3.33;;
31652;SDS011;18261;53.648;9.910;2023-07-20T05:37:22;5.57;;;3.28;;
31652;SDS011;18261;53.648;9.910;2023-07-20T05:39:48;7.25;;;3.47;;
31652;SDS011;18261;53.648;9.910;2023-07-20T05:42:15;6.32;;;3.35;;
31652;SDS011;18261;53.648;9.910;2023-07-20T05:44:41;8.13;;;3.00;;
31652;SDS011;18261;53.648;9.910;2023-07-20T05:47:07;8.63;;;2.90;;
31652;SDS011;18261;53.648;9.910;2023-07-20T05:49:34;10.25;;;3.30;;
31652;SDS011;18261;53.648;9.910;2023-07-20T05:52:00;7.18;;;2.90;;
31652;SDS011;18261;53.648;9.910;2023-07-20T05:54:26;9.88;;;3.30;;
31652;SDS011;18261;53.648;9.910;2023-07-20T05:56:53;5.13;;;2.20;;
31652;SDS011;18261;53.648;9.910;2023-07-20T05:59:19;10.52;;;3.38;;
31652;SDS011;18261;53.648;9.910;2023-07-20T06:01:45;8.25;;;2.72;;
31652;SDS011;18261;53.648;9.910;2023-07-20T06:04:14;9.23;;;1.90;;
31652;SDS011;18261;53.648;9.910;2023-07-20T06:06:40;6.85;;;2.60;;
31652;SDS011;18261;53.648;9.910;2023-07-20T06:09:06;10.25;;;2.85;;
31652;SDS011;18261;53.648;9.910;2023-07-20T06:11:36;5.78;;;2.40;;
31652;SDS011;18261;53.648;9.910;2023-07-20T06:14:02;5.88;;;2.00;;
31652;SDS011;18261;53.648;9.910;2023-07-20T06:16:28;5.25;;;1.90;;
31652;SDS011;18261;53.648;9.910;2023-07-20T06:18:55;10.80;;;2.47;;
31652;SDS011;18261;53.648;9.910;2023-07-20T06:21:21;9.98;;;2.78;;
31652;SDS011;18261;53.648;9.910;2023-07-20T06:23:47;4.80;;;1.90;;
31652;SDS011;18261;53.648;9.910;2023-07-20T06:26:13;4.72;;;2.00;;
31652;SDS011;18261;53.648;9.910;2023-07-20T06:28:39;7.78;;;1.88;;
31652;SDS011;18261;53.648;9.910;2023-07-20T06:31:05;7.82;;;1.92;;
31652;SDS011;18261;53.648;9.910;2023-07-20T06:33:31;5.30;;;1.35;;
31652;SDS011;18261;53.648;9.910;2023-07-20T06:35:57;6.50;;;1.60;;
31652;SDS011;18261;53.648;9.910;2023-07-20T06:38:23;7.43;;;2.17;;
31652;SDS011;18261;53.648;9.910;2023-07-20T06:40:49;8.20;;;1.58;;
31652;SDS011;18261;53.648;9.910;2023-07-20T06:43:15;7.00;;;1.90;;
31652;SDS011;18261;53.648;9.910;2023-07-20T06:45:41;6.53;;;1.50;;
31652;SDS011;18261;53.648;9.910;2023-07-20T06:48:08;6.80;;;1.38;;
31652;SDS011;18261;53.648;9.910;2023-07-20T06:50:34;4.82;;;1.50;;
31652;SDS011;18261;53.648;9.910;2023-07-20T06:53:00;7.68;;;1.75;;
31652;SDS011;18261;53.648;9.910;2023-07-20T06:55:28;7.90;;;1.63;;
31652;SDS011;18261;53.648;9.910;2023-07-20T06:57:55;29.63;;;2.65;;
31652;SDS011;18261;53.648;9.910;2023-07-20T07:00:21;9.35;;;2.15;;
31652;SDS011;18261;53.648;9.910;2023-07-20T07:02:47;8.18;;;2.13;;
31652;SDS011;18261;53.648;9.910;2023-07-20T07:05:13;14.00;;;3.55;;
31652;SDS011;18261;53.648;9.910;2023-07-20T07:07:40;18.60;;;6.05;;
31652;SDS011;18261;53.648;9.910;2023-07-20T07:10:06;11.20;;;2.78;;
31652;SDS011;18261;53.648;9.910;2023-07-20T07:12:33;9.45;;;2.20;;
31652;SDS011;18261;53.648;9.910;2023-07-20T07:15:00;12.10;;;2.88;;
31652;SDS011;18261;53.648;9.910;2023-07-20T07:17:26;9.05;;;2.72;;
31652;SDS011;18261;53.648;9.910;2023-07-20T07:19:52;7.00;;;2.00;;
31652;SDS011;18261;53.648;9.910;2023-07-20T07:22:20;14.25;;;6.25;;
31652;SDS011;18261;53.648;9.910;2023-07-20T07:24:46;46.83;;;19.13;;
31652;SDS011;18261;53.648;9.910;2023-07-20T07:27:12;20.40;;;7.95;;
31652;SDS011;18261;53.648;9.910;2023-07-20T07:29:41;15.90;;;5.82;;
31652;SDS011;18261;53.648;9.910;2023-07-20T07:32:09;34.88;;;14.60;;
31652;SDS011;18261;53.648;9.910;2023-07-20T07:34:36;18.48;;;7.68;;
31652;SDS011;18261;53.648;9.910;2023-07-20T07:37:02;18.13;;;7.68;;
31652;SDS011;18261;53.648;9.910;2023-07-20T07:39:28;8.57;;;2.17;;
31652;SDS011;18261;53.648;9.910;2023-07-20T07:41:55;16.77;;;6.03;;
31652;SDS011;18261;53.648;9.910;2023-07-20T07:44:21;14.82;;;4.50;;
31652;SDS011;18261;53.648;9.910;2023-07-20T07:46:47;11.38;;;2.60;;
31652;SDS011;18261;53.648;9.910;2023-07-20T07:49:13;10.70;;;3.42;;
31652;SDS011;18261;53.648;9.910;2023-07-20T07:51:39;11.25;;;4.28;;
31652;SDS011;18261;53.648;9.910;2023-07-20T07:54:05;9.50;;;3.05;;
31652;SDS011;18261;53.648;9.910;2023-07-20T07:56:31;15.43;;;3.13;;
31652;SDS011;18261;53.648;9.910;2023-07-20T07:58:57;9.80;;;3.10;;
31652;SDS011;18261;53.648;9.910;2023-07-20T08:01:23;9.23;;;3.10;;
31652;SDS011;18261;53.648;9.910;2023-07-20T08:03:50;9.02;;;2.65;;
31652;SDS011;18261;53.648;9.910;2023-07-20T08:06:16;14.25;;;3.47;;
31652;SDS011;18261;53.648;9.910;2023-07-20T08:08:43;9.38;;;3.13;;
31652;SDS011;18261;53.648;9.910;2023-07-20T08:11:09;11.70;;;3.30;;
31652;SDS011;18261;53.648;9.910;2023-07-20T08:13:35;10.43;;;3.50;;
31652;SDS011;18261;53.648;9.910;2023-07-20T08:16:01;15.05;;;2.85;;
31652;SDS011;18261;53.648;9.910;2023-07-20T08:18:27;12.73;;;2.58;;
31652;SDS011;18261;53.648;9.910;2023-07-20T08:20:53;7.90;;;2.53;;
31652;SDS011;18261;53.648;9.910;2023-07-20T08:23:20;12.80;;;2.67;;
31652;SDS011;18261;53.648;9.910;2023-07-20T08:25:46;13.60;;;3.15;;
31652;SDS011;18261;53.648;9.910;2023-07-20T08:28:13;9.55;;;2.42;;
31652;SDS011;18261;53.648;9.910;2023-07-20T08:30:42;10.98;;;2.42;;
31652;SDS011;18261;53.648;9.910;2023-07-20T08:33:15;10.98;;;2.75;;
31652;SDS011;18261;53.648;9.910;2023-07-20T08:35:41;18.73;;;2.97;;
31652;SDS011;18261;53.648;9.910;2023-07-20T08:38:07;11.98;;;2.25;;
31652;SDS011;18261;53.648;9.910;2023-07-20T08:40:34;7.63;;;1.90;;
31652;SDS011;18261;53.648;9.910;2023-07-20T08:43:04;9.90;;;2.00;;
31652;SDS011;18261;53.648;9.910;2023-07-20T08:45:30;8.75;;;2.22;;
31652;SDS011;18261;53.648;9.910;2023-07-20T08:47:58;16.75;;;2.78;;
31652;SDS011;18261;53.648;9.910;2023-07-20T08:50:26;16.00;;;3.10;;
31652;SDS011;18261;53.648;9.910;2023-07-20T08:52:54;11.25;;;2.45;;
31652;SDS011;18261;53.648;9.910;2023-07-20T08:55:22;7.90;;;1.90;;
31652;SDS011;18261;53.648;9.910;2023-07-20T08:57:55;8.27;;;2.17;;
31652;SDS011;18261;53.648;9.910;2023-07-20T09:00:22;12.65;;;1.90;;
31652;SDS011;18261;53.648;9.910;2023-07-20T09:02:52;11.63;;;1.83;;
31652;SDS011;18261;53.648;9.910;2023-07-20T09:05:19;8.48;;;1.60;;
31652;SDS011;18261;53.648;9.910;2023-07-20T09:07:45;10.30;;;1.60;;
31652;SDS011;18261;53.648;9.910;2023-07-20T09:10:11;10.32;;;1.70;;
31652;SDS011;18261;53.648;9.910;2023-07-20T09:12:38;7.03;;;1.73;;
31652;SDS011;18261;53.648;9.910;2023-07-20T09:15:05;8.57;;;1.70;;
31652;SDS011;18261;53.648;9.910;2023-07-20T09:17:31;8.35;;;1.58;;
31652;SDS011;18261;53.648;9.910;2023-07-20T09:19:57;11.90;;;1.85;;
31652;SDS011;18261;53.648;9.910;2023-07-20T09:22:30;6.57;;;1.77;;
31652;SDS011;18261;53.648;9.910;2023-07-20T09:24:56;9.55;;;1.70;;
31652;SDS011;18261;53.648;9.910;2023-07-20T09:27:22;7.95;;;1.50;;
31652;SDS011;18261;53.648;9.910;2023-07-20T09:29:51;4.50;;;1.58;;
31652;SDS011;18261;53.648;9.910;2023-07-20T09:32:18;10.27;;;1.80;;
31652;SDS011;18261;53.648;9.910;2023-07-20T09:34:47;9.70;;;2.50;;
31652;SDS011;18261;53.648;9.910;2023-07-20T09:37:13;6.85;;;1.90;;
31652;SDS011;18261;53.648;9.910;2023-07-20T09:39:45;6.95;;;1.40;;
31652;SDS011;18261;53.648;9.910;2023-07-20T09:42:12;7.03;;;1.40;;
31652;SDS011;18261;53.648;9.910;2023-07-20T09:44:38;8.65;;;1.27;;
31652;SDS011;18261;53.648;9.910;2023-07-20T09:47:05;3.95;;;1.23;;
31652;SDS011;18261;53.648;9.910;2023-07-20T09:49:31;5.68;;;1.90;;
31652;SDS011;18261;53.648;9.910;2023-07-20T09:51:57;4.32;;;1.50;;
31652;SDS011;18261;53.648;9.910;2023-07-20T09:54:25;8.98;;;1.83;;
31652;SDS011;18261;53.648;9.910;2023-07-20T09:56:53;5.30;;;1.33;;
31652;SDS011;18261;53.648;9.910;2023-07-20T09:59:19;5.45;;;1.17;;
31652;SDS011;18261;53.648;9.910;2023-07-20T10:01:45;11.30;;;1.60;;
31652;SDS011;18261;53.648;9.910;2023-07-20T10:04:12;12.55;;;1.83;;
31652;SDS011;18261;53.648;9.910;2023-07-20T10:06:42;7.95;;;1.33;;
31652;SDS011;18261;53.648;9.910;2023-07-20T10:09:09;5.32;;;1.45;;
31652;SDS011;18261;53.648;9.910;2023-07-20T10:11:36;8.20;;;1.50;;
31652;SDS011;18261;53.648;9.910;2023-07-20T10:14:03;11.27;;;1.80;;
31652;SDS011;18261;53.648;9.910;2023-07-20T10:16:36;8.75;;;1.58;;
31652;SDS011;18261;53.648;9.910;2023-07-20T10:19:17;5.35;;;1.73;;
31652;SDS011;18261;53.648;9.910;2023-07-20T10:21:49;6.90;;;1.42;;
31652;SDS011;18261;53.648;9.910;2023-07-20T10:24:17;4.75;;;1.02;;
31652;SDS011;18261;53.648;9.910;2023-07-20T10:26:43;8.55;;;4.38;;
31652;SDS011;18261;53.648;9.910;2023-07-20T10:29:09;5.82;;;1.60;;
31652;SDS011;18261;53.648;9.910;2023-07-20T10:31:35;6.40;;;1.55;;
31652;SDS011;18261;53.648;9.910;2023-07-20T10:34:02;8.50;;;1.35;;
31652;SDS011;18261;53.648;9.910;2023-07-20T10:36:28;10.48;;;1.40;;
31652;SDS011;18261;53.648;9.910;2023-07-20T10:38:55;7.85;;;1.38;;
31652;SDS011;18261;53.648;9.910;2023-07-20T10:43:50;8.18;;;0.90;;
31652;SDS011;18261;53.648;9.910;2023-07-20T10:46:33;7.13;;;1.27;;
31652;SDS011;18261;53.648;9.910;2023-07-20T10:48:59;9.93;;;1.33;;
31652;SDS011;18261;53.648;9.910;2023-07-20T10:51:27;5.32;;;1.00;;
31652;SDS011;18261;53.648;9.910;2023-07-20T10:53:54;6.95;;;1.40;;
31652;SDS011;18261;53.648;9.910;2023-07-20T10:56:22;6.15;;;1.15;;
31652;SDS011;18261;53.648;9.910;2023-07-20T10:58:48;4.03;;;1.08;;
31652;SDS011;18261;53.648;9.910;2023-07-20T11:01:17;6.95;;;1.40;;
31652;SDS011;18261;53.648;9.910;2023-07-20T11:03:48;6.88;;;1.30;;
31652;SDS011;18261;53.648;9.910;2023-07-20T11:09:03;13.68;;;1.77;;
31652;SDS011;18261;53.648;9.910;2023-07-20T11:11:30;7.95;;;1.35;;
31652;SDS011;18261;53.648;9.910;2023-07-20T11:14:00;8.13;;;1.48;;
31652;SDS011;18261;53.648;9.910;2023-07-20T11:16:33;5.53;;;1.10;;
31652;SDS011;18261;53.648;9.910;2023-07-20T11:18:59;10.65;;;1.73;;
31652;SDS011;18261;53.648;9.910;2023-07-20T11:21:25;6.72;;;1.23;;
31652;SDS011;18261;53.648;9.910;2023-07-20T11:23:52;5.88;;;1.23;;
31652;SDS011;18261;53.648;9.910;2023-07-20T11:26:18;6.68;;;1.00;;
31652;SDS011;18261;53.648;9.910;2023-07-20T11:28:51;5.10;;;0.95;;
31652;SDS011;18261;53.648;9.910;2023-07-20T11:31:18;3.17;;;0.80;;
31652;SDS011;18261;53.648;9.910;2023-07-20T11:33:44;4.25;;;1.10;;
31652;SDS011;18261;53.648;9.910;2023-07-20T11:36:11;3.72;;;1.10;;
31652;SDS011;18261;53.648;9.910;2023-07-20T11:38:37;3.60;;;0.93;;
31652;SDS011;18261;53.648;9.910;2023-07-20T11:41:03;2.10;;;0.77;;
31652;SDS011;18261;53.648;9.910;2023-07-20T11:43:30;6.88;;;1.17;;
31652;SDS011;18261;53.648;9.910;2023-07-20T11:45:56;3.35;;;1.00;;
31652;SDS011;18261;53.648;9.910;2023-07-20T11:48:22;6.13;;;1.10;;
31652;SDS011;18261;53.648;9.910;2023-07-20T11:50:48;6.95;;;1.73;;
31652;SDS011;18261;53.648;9.910;2023-07-20T11:53:14;5.43;;;1.48;;
31652;SDS011;18261;53.648;9.910;2023-07-20T11:55:41;6.30;;;1.52;;
31652;SDS011;18261;53.648;9.910;2023-07-20T11:58:08;5.78;;;1.13;;
31652;SDS011;18261;53.648;9.910;2023-07-20T12:00:35;7.85;;;1.20;;
31652;SDS011;18261;53.648;9.910;2023-07-20T12:03:01;15.40;;;1.35;;
31652;SDS011;18261;53.648;9.910;2023-07-20T12:05:27;5.65;;;1.10;;
31652;SDS011;18261;53.648;9.910;2023-07-20T12:07:53;8.45;;;1.60;;
31652;SDS011;18261;53.648;9.910;2023-07-20T12:10:26;11.70;;;1.98;;
31652;SDS011;18261;53.648;9.910;2023-07-20T12:13:02;12.15;;;1.60;;
31652;SDS011;18261;53.648;9.910;2023-07-20T12:15:28;9.60;;;2.00;;
31652;SDS011;18261;53.648;9.910;2023-07-20T12:17:59;9.57;;;1.55;;
31652;SDS011;18261;53.648;9.910;2023-07-20T12:20:26;10.73;;;1.83;;
31652;SDS011;18261;53.648;9.910;2023-07-20T12:22:52;13.68;;;2.42;;
31652;SDS011;18261;53.648;9.910;2023-07-20T12:25:19;13.00;;;2.13;;
31652;SDS011;18261;53.648;9.910;2023-07-20T12:27:45;7.65;;;1.95;;
31652;SDS011;18261;53.648;9.910;2023-07-20T12:30:12;12.52;;;1.80;;
31652;SDS011;18261;53.648;9.910;2023-07-20T12:32:38;8.73;;;1.42;;
31652;SDS011;18261;53.648;9.910;2023-07-20T12:35:05;12.15;;;1.83;;
31652;SDS011;18261;53.648;9.910;2023-07-20T12:37:31;8.13;;;1.77;;
31652;SDS011;18261;53.648;9.910;2023-07-20T12:39:57;9.25;;;2.00;;
31652;SDS011;18261;53.648;9.910;2023-07-20T12:42:23;8.13;;;1.70;;
31652;SDS011;18261;53.648;9.910;2023-07-20T12:44:49;8.00;;;1.73;;
31652;SDS011;18261;53.648;9.910;2023-07-20T12:47:16;5.90;;;1.45;;
31652;SDS011;18261;53.648;9.910;2023-07-20T12:49:42;6.35;;;1.30;;
31652;SDS011;18261;53.648;9.910;2023-07-20T12:52:11;5.25;;;1.27;;
31652;SDS011;18261;53.648;9.910;2023-07-20T12:54:38;7.00;;;1.20;;
31652;SDS011;18261;53.648;9.910;2023-07-20T12:57:04;6.18;;;1.70;;
31652;SDS011;18261;53.648;9.910;2023-07-20T12:59:30;5.50;;;1.55;;
31652;SDS011;18261;53.648;9.910;2023-07-20T13:01:56;4.10;;;1.05;;
31652;SDS011;18261;53.648;9.910;2023-07-20T13:04:22;5.03;;;1.25;;
31652;SDS011;18261;53.648;9.910;2023-07-20T13:06:48;4.47;;;1.10;;
31652;SDS011;18261;53.648;9.910;2023-07-20T13:09:14;5.30;;;1.33;;
31652;SDS011;18261;53.648;9.910;2023-07-20T13:11:40;5.28;;;1.20;;
31652;SDS011;18261;53.648;9.910;2023-07-20T13:14:06;4.55;;;1.38;;
31652;SDS011;18261;53.648;9.910;2023-07-20T13:16:32;6.03;;;1.20;;
31652;SDS011;18261;53.648;9.910;2023-07-20T13:18:59;6.53;;;1.00;;
31652;SDS011;18261;53.648;9.910;2023-07-20T13:21:25;10.30;;;1.80;;
31652;SDS011;18261;53.648;9.910;2023-07-20T13:23:50;7.88;;;3.70;;
31652;SDS011;18261;53.648;9.910;2023-07-20T13:26:16;9.05;;;1.73;;
31652;SDS011;18261;53.648;9.910;2023-07-20T13:28:42;9.20;;;1.98;;
31652;SDS011;18261;53.648;9.910;2023-07-20T13:31:08;5.60;;;1.70;;
31652;SDS011;18261;53.648;9.910;2023-07-20T13:33:35;8.05;;;1.65;;
31652;SDS011;18261;53.648;9.910;2023-07-20T13:36:02;11.77;;;1.60;;
31652;SDS011;18261;53.648;9.910;2023-07-20T13:38:30;8.23;;;1.80;;
31652;SDS011;18261;53.648;9.910;2023-07-20T13:40:56;6.75;;;1.60;;
31652;SDS011;18261;53.648;9.910;2023-07-20T13:43:22;3.67;;;0.80;;
31652;SDS011;18261;53.648;9.910;2023-07-20T13:45:48;3.17;;;0.95;;
31652;SDS011;18261;53.648;9.910;2023-07-20T13:48:14;5.75;;;1.20;;
31652;SDS011;18261;53.648;9.910;2023-07-20T13:50:40;3.50;;;1.00;;
31652;SDS011;18261;53.648;9.910;2023-07-20T13:53:06;5.85;;;1.00;;
31652;SDS011;18261;53.648;9.910;2023-07-20T13:55:32;4.40;;;0.90;;
31652;SDS011;18261;53.648;9.910;2023-07-20T13:58:01;4.13;;;1.20;;
31652;SDS011;18261;53.648;9.910;2023-07-20T14:00:27;5.47;;;1.48;;
31652;SDS011;18261;53.648;9.910;2023-07-20T14:02:57;5.03;;;1.45;;
31652;SDS011;18261;53.648;9.910;2023-07-20T14:05:23;5.30;;;1.20;;
31652;SDS011;18261;53.648;9.910;2023-07-20T14:07:49;5.18;;;1.17;;
31652;SDS011;18261;53.648;9.910;2023-07-20T14:10:15;5.78;;;1.30;;
31652;SDS011;18261;53.648;9.910;2023-07-20T14:12:42;5.93;;;1.63;;
31652;SDS011;18261;53.648;9.910;2023-07-20T14:15:09;10.45;;;2.28;;
31652;SDS011;18261;53.648;9.910;2023-07-20T14:17:35;13.02;;;1.70;;
31652;SDS011;18261;53.648;9.910;2023-07-20T14:20:01;8.00;;;1.70;;
31652;SDS011;18261;53.648;9.910;2023-07-20T14:22:30;5.47;;;1.23;;
31652;SDS011;18261;53.648;9.910;2023-07-20T14:24:56;9.18;;;1.63;;
31652;SDS011;18261;53.648;9.910;2023-07-20T14:27:22;4.13;;;1.00;;
31652;SDS011;18261;53.648;9.910;2023-07-20T14:29:48;5.47;;;1.40;;
31652;SDS011;18261;53.648;9.910;2023-07-20T14:32:14;4.53;;;1.27;;
31652;SDS011;18261;53.648;9.910;2023-07-20T14:34:40;4.97;;;1.40;;
31652;SDS011;18261;53.648;9.910;2023-07-20T14:37:06;4.15;;;1.00;;
31652;SDS011;18261;53.648;9.910;2023-07-20T14:39:32;7.25;;;1.40;;
31652;SDS011;18261;53.648;9.910;2023-07-20T14:41:58;2.45;;;0.88;;
31652;SDS011;18261;53.648;9.910;2023-07-20T14:44:24;4.68;;;1.40;;
31652;SDS011;18261;53.648;9.910;2023-07-20T14:46:50;3.55;;;1.35;;
31652;SDS011;18261;53.648;9.910;2023-07-20T14:49:16;7.00;;;1.50;;
31652;SDS011;18261;53.648;9.910;2023-07-20T14:51:43;15.75;;;4.75;;
31652;SDS011;18261;53.648;9.910;2023-07-20T14:54:12;5.40;;;1.30;;